createdAt,value
2019-01-17T00:01:28.805Z,28.23
2019-01-17T00:04:18.475Z,23.53
2019-01-17T00:07:07.351Z,27.13
2019-01-17T00:09:56.196Z,24.23
2019-01-17T00:12:45.072Z,26.30
2019-01-17T00:15:34.092Z,23.27
2019-01-17T00:18:22.778Z,27.40
2019-01-17T00:21:11.740Z,22.53
2019-01-17T00:24:02.762Z,22.43
2019-01-17T00:26:38.794Z,25.57
2019-01-17T00:29:27.856Z,21.37
2019-01-17T00:32:16.085Z,20.50
2019-01-17T00:35:05.089Z,19.30
2019-01-17T00:37:57.810Z,22.83
2019-01-17T00:40:36.242Z,21.70
2019-01-17T00:43:25.206Z,21.90
2019-01-17T00:46:13.327Z,25.03
2019-01-17T00:49:01.668Z,22.23
2019-01-17T00:51:50.426Z,24.53
2019-01-17T00:54:33.062Z,20.97
2019-01-17T00:57:15.880Z,22.90
2019-01-17T00:59:58.278Z,23.43
2019-01-17T01:02:47.333Z,18.77
2019-01-17T01:05:29.853Z,19.80
2019-01-17T01:08:18.484Z,21.60
2019-01-17T01:11:06.246Z,22.37
2019-01-17T01:13:53.245Z,20.17
2019-01-17T01:16:43.755Z,18.30
2019-01-17T01:19:27.116Z,19.83
2019-01-17T01:22:16.429Z,18.93
2019-01-17T01:25:05.408Z,16.00
2019-01-17T01:27:54.265Z,19.87
2019-01-17T01:30:43.310Z,18.83
2019-01-17T01:33:32.472Z,17.50
2019-01-17T01:36:22.794Z,16.43
2019-01-17T01:39:10.013Z,16.20
2019-01-17T01:42:01.732Z,16.70
2019-01-17T01:44:50.496Z,15.77
2019-01-17T01:47:39.859Z,18.07
2019-01-17T01:50:28.837Z,17.67
2019-01-17T01:53:06.296Z,18.20
2019-01-17T01:55:36.829Z,18.53
2019-01-17T01:58:07.040Z,12.87
2019-01-17T02:00:37.468Z,15.47
2019-01-17T02:03:07.813Z,13.40
2019-01-17T02:05:37.605Z,14.97
2019-01-17T02:08:07.436Z,19.00
2019-01-17T02:10:37.844Z,16.13
2019-01-17T02:13:08.061Z,15.93
2019-01-17T02:15:37.891Z,15.83
2019-01-17T02:18:08.208Z,15.87
2019-01-17T02:20:39.038Z,16.27
2019-01-17T02:23:09.369Z,15.40
2019-01-17T02:25:39.580Z,15.83
2019-01-17T02:28:09.605Z,15.13
2019-01-17T02:30:39.838Z,14.63
2019-01-17T02:33:10.463Z,15.07
2019-01-17T02:35:40.786Z,13.33
2019-01-17T02:38:10.807Z,14.63
2019-01-17T02:40:40.816Z,15.17
2019-01-17T02:43:11.043Z,14.83
2019-01-17T02:45:41.075Z,16.80
2019-01-17T02:48:11.268Z,11.17
2019-01-17T02:50:41.715Z,13.83
2019-01-17T02:53:11.834Z,15.87
2019-01-17T02:55:42.054Z,14.60
2019-01-17T02:58:12.577Z,15.27
2019-01-17T03:00:42.685Z,13.10
2019-01-17T03:03:31.751Z,12.80
2019-01-17T03:06:01.566Z,18.33
2019-01-17T03:08:31.578Z,14.37
2019-01-17T03:11:01.784Z,16.60
2019-01-17T03:13:31.802Z,13.90
2019-01-17T03:16:01.837Z,14.00
2019-01-17T03:18:32.072Z,14.37
2019-01-17T03:21:02.285Z,14.23
2019-01-17T03:23:32.696Z,17.30
2019-01-17T03:26:03.217Z,13.23
2019-01-17T03:28:33.345Z,13.77
2019-01-17T03:31:03.583Z,15.97
2019-01-17T03:33:33.902Z,14.30
2019-01-17T03:36:05.429Z,17.13
2019-01-17T03:38:35.875Z,22.93
2019-01-17T03:41:06.090Z,19.33
2019-01-17T03:43:36.626Z,18.87
2019-01-17T03:46:07.375Z,14.00
2019-01-17T03:48:41.558Z,17.10
2019-01-17T03:51:13.024Z,17.73
2019-01-17T03:53:43.756Z,18.33
2019-01-17T03:56:21.407Z,15.70
2019-01-17T03:58:46.639Z,13.90
2019-01-17T04:01:16.873Z,14.70
2019-01-17T04:03:46.792Z,15.83
2019-01-17T04:06:17.099Z,15.50
2019-01-17T04:08:47.122Z,14.00
2019-01-17T04:11:17.444Z,13.73
2019-01-17T04:13:47.567Z,12.03
2019-01-17T04:16:17.474Z,13.50
2019-01-17T04:18:47.691Z,13.73
2019-01-17T04:21:17.814Z,12.53
2019-01-17T04:23:47.935Z,11.23
2019-01-17T04:26:17.854Z,10.83
2019-01-17T04:28:47.776Z,11.37
2019-01-17T04:31:17.898Z,11.53
2019-01-17T04:33:48.028Z,11.37
2019-01-17T04:36:18.214Z,12.73
2019-01-17T04:38:48.548Z,12.93
2019-01-17T04:41:18.787Z,12.03
2019-01-17T04:43:49.189Z,11.30
2019-01-17T04:46:20.243Z,12.20
2019-01-17T04:48:50.875Z,15.57
2019-01-17T04:51:21.803Z,14.67
2019-01-17T04:53:52.750Z,13.67
2019-01-17T04:56:23.268Z,13.33
2019-01-17T04:58:53.607Z,13.87
2019-01-17T05:01:23.831Z,12.73
2019-01-17T05:03:54.363Z,14.20
2019-01-17T05:06:25.195Z,12.97
2019-01-17T05:08:55.500Z,11.27
2019-01-17T05:11:25.334Z,16.00
2019-01-17T05:13:55.121Z,13.20
2019-01-17T05:16:25.456Z,13.20
2019-01-17T05:18:55.457Z,26.70
2019-01-17T05:21:25.474Z,23.90
2019-01-17T05:23:55.629Z,14.37
2019-01-17T05:26:25.921Z,12.73
2019-01-17T05:29:02.693Z,13.37
2019-01-17T05:31:32.605Z,11.37
2019-01-17T05:34:02.417Z,16.63
2019-01-17T05:36:32.844Z,21.50
2019-01-17T05:39:04.815Z,12.10
2019-01-17T05:41:34.821Z,13.53
2019-01-17T05:44:05.079Z,11.37
2019-01-17T05:46:34.657Z,10.33
2019-01-17T05:49:04.880Z,13.70
2019-01-17T05:51:34.991Z,15.60
2019-01-17T05:54:05.012Z,11.40
2019-01-17T05:56:35.028Z,11.80
2019-01-17T05:59:05.072Z,12.57
2019-01-17T06:01:35.263Z,15.30
2019-01-17T06:04:05.905Z,11.07
2019-01-17T06:06:36.325Z,15.70
2019-01-17T06:09:08.703Z,12.57
2019-01-17T06:11:38.923Z,13.50
2019-01-17T06:14:09.951Z,12.97
2019-01-17T06:16:41.423Z,16.93
2019-01-17T06:19:12.054Z,10.23
2019-01-17T06:21:42.074Z,14.23
2019-01-17T06:24:12.097Z,14.67
2019-01-17T06:26:41.673Z,11.00
2019-01-17T06:29:11.894Z,10.10
2019-01-17T06:31:41.913Z,13.60
2019-01-17T06:34:12.029Z,14.63
2019-01-17T06:36:42.884Z,12.00
2019-01-17T06:39:13.703Z,11.87
2019-01-17T06:41:44.327Z,11.50
2019-01-17T06:44:20.123Z,10.77
2019-01-17T06:46:46.943Z,10.20
2019-01-17T06:49:17.148Z,10.07
2019-01-17T06:51:47.368Z,12.47
2019-01-17T06:54:18.424Z,11.87
2019-01-17T06:56:48.644Z,12.60
2019-01-17T06:59:18.440Z,10.67
2019-01-17T07:01:48.786Z,15.90
2019-01-17T07:04:18.805Z,18.30
2019-01-17T07:06:49.225Z,14.30
2019-01-17T07:09:20.347Z,14.63
2019-01-17T07:11:50.263Z,12.87
2019-01-17T07:14:20.686Z,13.77
2019-01-17T07:16:50.809Z,11.13
2019-01-17T07:19:21.246Z,10.23
2019-01-17T07:21:51.456Z,14.67
2019-01-17T07:24:21.486Z,10.53
2019-01-17T07:26:51.411Z,11.73
2019-01-17T07:29:21.645Z,12.07
2019-01-17T07:31:54.799Z,12.63
2019-01-17T07:34:24.829Z,12.97
2019-01-17T07:36:55.132Z,11.73
2019-01-17T07:39:25.662Z,10.80
2019-01-17T07:41:55.582Z,11.43
2019-01-17T07:44:26.103Z,14.63
2019-01-17T07:46:56.436Z,18.80
2019-01-17T07:49:26.866Z,12.50
2019-01-17T07:51:57.721Z,12.80
2019-01-17T07:54:28.120Z,14.13
2019-01-17T07:56:59.782Z,12.07
2019-01-17T07:59:30.618Z,15.40
2019-01-17T08:02:01.877Z,17.67
2019-01-17T08:04:33.310Z,22.43
2019-01-17T08:07:03.745Z,21.50
2019-01-17T08:09:52.578Z,27.07
2019-01-17T08:12:22.404Z,21.80
2019-01-17T08:14:52.416Z,22.20
2019-01-17T08:17:22.867Z,19.07
2019-01-17T08:19:56.452Z,19.37
2019-01-17T08:22:50.730Z,20.67
2019-01-17T08:25:20.343Z,19.20
2019-01-17T08:27:50.454Z,19.87
2019-01-17T08:30:24.680Z,15.87
2019-01-17T08:32:54.785Z,17.80
2019-01-17T08:35:24.702Z,15.47
2019-01-17T08:37:54.726Z,17.83
2019-01-17T08:40:30.571Z,17.57
2019-01-17T08:55:04.764Z,22.70
2019-01-17T08:57:34.787Z,19.67
2019-01-17T09:00:06.333Z,20.77
2019-01-17T09:02:36.143Z,21.70
2019-01-17T09:05:06.374Z,21.37
2019-01-17T09:07:37.406Z,17.00
2019-01-17T09:10:08.252Z,20.60
2019-01-17T09:12:40.675Z,21.23
2019-01-17T09:15:13.294Z,19.50
2019-01-17T09:17:44.444Z,18.57
2019-01-17T09:20:18.354Z,20.27
2019-01-17T09:23:04.853Z,20.53
2019-01-17T09:25:48.285Z,17.20
2019-01-17T09:28:23.618Z,16.23
2019-01-17T09:31:01.213Z,13.80
2019-01-17T09:33:37.480Z,18.80
2019-01-17T09:36:07.905Z,19.03
2019-01-17T09:38:38.323Z,17.70
2019-01-17T09:41:08.649Z,14.30
2019-01-17T09:43:40.515Z,15.57
2019-01-17T09:46:14.226Z,18.27
2019-01-17T09:48:44.844Z,20.00
2019-01-17T09:51:16.715Z,16.13
2019-01-17T09:53:47.645Z,16.10
2019-01-17T09:56:19.294Z,16.07
2019-01-17T09:58:49.931Z,17.90
2019-01-17T10:01:20.150Z,18.63
2019-01-17T10:03:51.186Z,15.33
2019-01-17T10:06:22.231Z,15.20
2019-01-17T10:08:52.453Z,17.10
2019-01-17T10:11:22.715Z,18.37
2019-01-17T10:13:53.076Z,19.13
2019-01-17T10:16:33.768Z,15.80
2019-01-17T10:19:13.815Z,18.20
2019-01-17T10:22:04.015Z,16.67
2019-01-17T10:24:37.502Z,15.70
2019-01-17T10:27:12.229Z,13.70
2019-01-17T10:29:45.108Z,15.80
2019-01-17T10:32:34.176Z,13.23
2019-01-17T10:35:23.338Z,16.27
2019-01-17T10:38:12.405Z,14.27
2019-01-17T10:40:56.493Z,13.40
2019-01-17T10:43:43.373Z,12.87
2019-01-17T10:46:32.325Z,11.10
2019-01-17T10:49:11.454Z,13.23
2019-01-17T10:52:00.419Z,14.63
2019-01-17T10:54:49.782Z,17.73
2019-01-17T10:57:32.194Z,12.83
2019-01-17T11:00:10.715Z,13.43
2019-01-17T11:02:59.774Z,11.87
2019-01-17T11:05:48.733Z,12.13
2019-01-17T11:08:38.611Z,13.97
2019-01-17T11:11:27.375Z,10.50
2019-01-17T11:14:15.414Z,13.97
2019-01-17T11:17:00.066Z,10.87
2019-01-17T11:19:50.773Z,12.93
2019-01-17T11:22:39.735Z,14.27
2019-01-17T11:25:29.425Z,10.33
2019-01-17T11:28:09.765Z,11.87
2019-01-17T11:30:58.627Z,10.80
2019-01-17T11:33:41.236Z,13.97
2019-01-17T11:36:30.104Z,13.20
2019-01-17T11:39:19.464Z,9.47
2019-01-17T11:42:08.438Z,12.17
2019-01-17T11:44:57.695Z,14.73
2019-01-17T11:47:36.211Z,13.30
2019-01-17T11:50:28.044Z,14.17
2019-01-17T11:53:16.894Z,12.13
2019-01-17T11:55:57.463Z,11.93
2019-01-17T11:58:36.695Z,12.33
2019-01-17T12:01:26.882Z,10.93
2019-01-17T12:04:07.544Z,13.23
2019-01-17T12:06:41.864Z,10.27
2019-01-17T12:09:14.756Z,11.73
2019-01-17T12:11:45.887Z,11.67
2019-01-17T12:14:15.804Z,11.77
2019-01-17T12:16:46.132Z,11.80
2019-01-17T12:19:15.838Z,10.73
2019-01-17T12:21:48.614Z,14.00
2019-01-17T12:24:18.323Z,13.97
2019-01-17T12:26:52.236Z,11.70
2019-01-17T12:29:27.686Z,11.17
2019-01-17T12:31:57.494Z,10.53
2019-01-17T12:34:31.706Z,11.07
2019-01-17T12:37:01.625Z,12.20
2019-01-17T12:39:31.435Z,13.37
2019-01-17T12:42:01.445Z,14.53
2019-01-17T12:44:31.774Z,11.77
2019-01-17T12:47:01.803Z,12.83
2019-01-17T12:49:31.704Z,11.60
2019-01-17T12:52:02.074Z,15.40
2019-01-17T12:54:33.290Z,17.03
2019-01-17T12:57:02.884Z,11.93
2019-01-17T12:59:33.103Z,10.33
2019-01-17T13:02:03.213Z,11.77
2019-01-17T13:04:33.134Z,11.33
2019-01-17T13:07:03.351Z,12.77
2019-01-17T13:09:33.686Z,14.80
2019-01-17T13:12:03.804Z,15.07
2019-01-17T13:14:33.914Z,13.30
2019-01-17T13:17:04.074Z,15.07
2019-01-17T13:19:34.274Z,13.30
2019-01-17T13:22:04.477Z,11.93
2019-01-17T13:24:34.388Z,12.77
2019-01-17T13:27:05.335Z,13.80
2019-01-17T13:29:36.368Z,14.13
2019-01-17T13:32:06.594Z,16.13
2019-01-17T13:34:37.424Z,16.63
2019-01-17T13:37:08.464Z,18.47
2019-01-17T13:39:38.484Z,15.90
2019-01-17T13:42:08.394Z,16.87
2019-01-17T13:44:38.004Z,14.23
2019-01-17T13:47:08.122Z,17.50
2019-01-17T13:49:38.765Z,14.93
2019-01-17T13:52:08.566Z,15.77
2019-01-17T13:54:38.478Z,14.13
2019-01-17T13:57:08.594Z,15.73
2019-01-17T13:59:38.506Z,17.00
2019-01-17T14:02:09.053Z,16.33
2019-01-17T14:04:42.082Z,18.40
2019-01-17T14:07:12.362Z,15.40
2019-01-17T14:09:45.342Z,14.60
2019-01-17T14:12:16.412Z,20.27
2019-01-17T14:14:47.114Z,15.20
2019-01-17T14:17:19.994Z,16.23
2019-01-17T14:19:50.324Z,14.37
2019-01-17T14:22:33.243Z,13.83
2019-01-17T14:25:04.083Z,13.60
2019-01-17T14:27:35.634Z,15.10
2019-01-17T14:30:09.332Z,14.30
2019-01-17T14:32:43.443Z,19.37
2019-01-17T14:35:16.939Z,20.87
2019-01-17T14:37:47.677Z,17.80
2019-01-17T14:40:17.894Z,17.93
2019-01-17T14:42:49.244Z,14.13
2019-01-17T14:45:19.976Z,17.27
2019-01-17T14:47:49.962Z,16.20
2019-01-17T14:50:21.643Z,18.20
2019-01-17T14:52:52.082Z,15.17
2019-01-17T14:55:22.300Z,14.97
2019-01-17T14:57:52.620Z,19.50
2019-01-17T15:00:25.616Z,17.80
2019-01-17T15:02:58.483Z,19.90
2019-01-17T15:05:31.070Z,20.03
2019-01-17T15:08:02.074Z,16.03
2019-01-17T15:10:49.330Z,14.57
2019-01-17T15:13:23.859Z,18.70
2019-01-17T15:15:57.964Z,20.07
2019-01-17T15:18:32.082Z,21.23
2019-01-17T15:21:12.735Z,22.63
2019-01-17T15:23:46.080Z,20.53
2019-01-17T15:26:28.648Z,19.13
2019-01-17T15:28:59.980Z,21.93
2019-01-17T15:31:34.073Z,21.10
2019-01-17T15:34:04.537Z,25.53
2019-01-17T15:36:34.649Z,22.07
2019-01-17T15:39:07.024Z,18.77
2019-01-17T15:41:37.248Z,20.30
2019-01-17T15:44:07.457Z,18.77
2019-01-17T15:46:37.769Z,20.73
2019-01-17T15:49:09.232Z,19.33
2019-01-17T15:51:40.784Z,18.73
2019-01-17T15:54:11.136Z,14.90
2019-01-17T15:56:41.128Z,16.13
2019-01-17T15:59:11.456Z,15.67
2019-01-17T16:01:41.673Z,20.23
2019-01-17T16:04:13.144Z,19.60
2019-01-17T16:06:45.086Z,20.97
2019-01-17T16:09:15.817Z,19.93
2019-01-17T16:11:49.728Z,21.57
2019-01-17T16:14:20.488Z,22.43
2019-01-17T16:16:51.199Z,26.70
2019-01-17T16:19:24.072Z,33.47
2019-01-17T16:21:55.848Z,35.03
2019-01-17T16:24:26.976Z,32.90
2019-01-17T16:26:58.728Z,34.93
2019-01-17T16:29:29.467Z,27.93
2019-01-17T16:31:59.897Z,29.33
2019-01-17T16:34:30.537Z,25.57
2019-01-17T16:37:00.653Z,25.83
2019-01-17T16:39:31.484Z,32.47
2019-01-17T16:42:03.368Z,22.77
2019-01-17T16:44:33.762Z,27.00
2019-01-17T16:47:05.848Z,21.53
2019-01-17T16:49:39.353Z,26.60
2019-01-17T16:52:11.009Z,23.80
2019-01-17T16:54:44.688Z,30.43
2019-01-17T16:57:15.921Z,29.50
2019-01-17T16:59:46.459Z,31.30
2019-01-17T17:02:16.897Z,32.43
2019-01-17T17:04:47.302Z,35.43
2019-01-17T17:07:17.977Z,29.27
2019-01-17T17:10:08.456Z,24.97
2019-01-17T17:12:38.863Z,26.07
2019-01-17T17:15:10.097Z,22.47
2019-01-17T17:17:42.979Z,22.77
2019-01-17T17:20:15.579Z,24.57
2019-01-17T17:22:46.704Z,37.17
2019-01-17T17:25:16.889Z,38.07
2019-01-17T17:27:47.691Z,43.57
2019-01-17T17:30:21.488Z,26.73
2019-01-17T17:32:57.088Z,54.20
2019-01-17T17:35:27.840Z,59.63
2019-01-17T17:37:59.429Z,25.63
2019-01-17T17:40:39.969Z,27.57
2019-01-17T17:43:14.696Z,27.47
2019-01-17T17:45:47.609Z,24.37
2019-01-17T17:48:20.808Z,28.23
2019-01-17T17:50:52.841Z,25.47
2019-01-17T17:53:23.808Z,27.57
2019-01-17T17:55:55.528Z,19.90
2019-01-17T17:58:29.239Z,20.20
2019-01-17T18:01:07.840Z,16.53
2019-01-17T18:03:39.432Z,18.10
2019-01-17T18:06:11.450Z,24.93
2019-01-17T18:08:47.336Z,22.23
2019-01-17T18:11:17.383Z,20.40
2019-01-17T18:13:50.771Z,22.37
2019-01-17T18:16:21.128Z,20.10
2019-01-17T18:18:54.977Z,25.57
2019-01-17T18:21:25.489Z,20.50
2019-01-17T18:23:58.800Z,20.97
2019-01-17T18:26:29.089Z,22.70
2019-01-17T18:28:59.770Z,19.13
2019-01-17T18:31:30.289Z,20.80
2019-01-17T18:34:01.416Z,25.40
2019-01-17T18:36:32.056Z,20.80
2019-01-17T18:39:02.100Z,24.00
2019-01-17T18:41:32.609Z,23.47
2019-01-17T18:44:09.970Z,25.93
2019-01-17T18:46:40.624Z,27.60
2019-01-17T18:49:17.616Z,31.13
2019-01-17T18:51:52.328Z,26.03
2019-01-17T18:54:22.736Z,26.87
2019-01-17T18:56:59.416Z,20.60
2019-01-17T18:59:30.568Z,28.03
2019-01-17T19:02:02.728Z,23.37
2019-01-17T19:04:44.648Z,24.57
2019-01-17T19:07:15.888Z,23.10
2019-01-17T19:09:47.408Z,24.83
2019-01-17T19:12:18.448Z,23.20
2019-01-17T19:14:58.113Z,24.53
2019-01-17T19:17:32.048Z,22.03
2019-01-17T19:20:03.861Z,24.73
2019-01-17T19:22:34.080Z,23.50
2019-01-17T19:25:05.342Z,26.20
2019-01-17T19:27:36.728Z,33.97
2019-01-17T19:30:14.088Z,20.07
2019-01-17T19:32:44.528Z,23.23
2019-01-17T19:35:18.329Z,24.77
2019-01-17T19:37:49.456Z,25.13
2019-01-17T19:40:21.218Z,25.57
2019-01-17T19:42:52.096Z,25.23
2019-01-17T19:45:23.128Z,28.17
2019-01-17T19:47:57.208Z,20.80
2019-01-17T19:50:29.761Z,24.40
2019-01-17T19:53:08.383Z,25.97
2019-01-17T19:55:39.249Z,24.63
2019-01-17T19:58:10.376Z,23.47
2019-01-17T20:00:41.816Z,23.97
2019-01-17T20:03:15.848Z,23.47
2019-01-17T20:05:45.848Z,24.20
2019-01-17T20:08:19.376Z,24.00
2019-01-17T20:10:49.768Z,25.17
2019-01-17T20:13:20.101Z,20.67
2019-01-17T20:15:52.089Z,19.30
2019-01-17T20:18:22.888Z,21.77
2019-01-17T20:20:53.216Z,18.37
2019-01-17T20:23:24.040Z,19.97
2019-01-17T20:25:54.099Z,17.27
2019-01-17T20:28:24.608Z,15.10
2019-01-17T20:30:54.912Z,12.57
2019-01-17T20:33:25.461Z,17.50
2019-01-17T20:35:59.689Z,13.07
2019-01-17T20:38:31.822Z,13.00
2019-01-17T20:41:03.489Z,12.43
2019-01-17T20:53:48.928Z,15.70
2019-01-17T20:56:32.898Z,14.83
2019-01-17T20:59:12.203Z,14.63
2019-01-17T21:02:10.481Z,16.57
2019-01-17T21:04:41.000Z,18.70
2019-01-17T21:07:14.501Z,15.93
2019-01-17T21:09:44.829Z,24.10
2019-01-17T21:12:14.976Z,21.27
2019-01-17T21:14:45.292Z,15.17
2019-01-17T21:17:15.385Z,12.53
2019-01-17T21:19:45.821Z,14.27
2019-01-17T21:22:16.091Z,12.80
2019-01-17T21:24:46.769Z,12.93
2019-01-17T21:27:16.688Z,13.60
2019-01-17T21:29:46.811Z,13.53
2019-01-17T21:32:35.860Z,13.23
2019-01-17T21:35:06.797Z,15.83
2019-01-17T21:37:36.707Z,13.23
2019-01-17T21:40:07.859Z,11.97
2019-01-17T21:42:40.532Z,15.97
2019-01-17T21:45:11.787Z,15.13
2019-01-17T21:47:48.091Z,12.40
2019-01-17T21:50:26.067Z,12.43
2019-01-17T21:52:57.402Z,11.57
2019-01-17T21:55:27.631Z,12.07
2019-01-17T21:57:57.638Z,14.63
2019-01-17T22:00:29.287Z,15.60
2019-01-17T22:03:05.372Z,15.30
2019-01-17T22:05:36.988Z,17.40
2019-01-17T22:08:06.815Z,12.07
2019-01-17T22:10:40.307Z,11.90
2019-01-17T22:13:11.767Z,14.53
2019-01-17T22:15:42.082Z,15.27
2019-01-17T22:18:12.825Z,13.40
2019-01-17T22:20:43.352Z,11.43
2019-01-17T22:23:13.479Z,12.63
2019-01-17T22:25:43.376Z,15.80
2019-01-17T22:28:13.914Z,18.40
2019-01-17T22:30:44.242Z,16.90
2019-01-17T22:33:14.363Z,19.70
2019-01-17T22:35:44.588Z,19.60
2019-01-17T22:38:15.928Z,17.43
2019-01-17T22:40:49.204Z,19.70
2019-01-17T22:43:19.241Z,19.47
2019-01-17T22:45:49.340Z,18.77
2019-01-17T22:48:19.784Z,12.00
2019-01-17T22:50:49.791Z,15.90
2019-01-17T22:53:20.018Z,22.17
2019-01-17T22:55:50.856Z,17.47
2019-01-17T22:58:21.274Z,14.70
2019-01-17T23:00:56.204Z,22.10
2019-01-17T23:03:34.400Z,12.07
2019-01-17T23:06:05.671Z,14.00
2019-01-17T23:08:35.783Z,10.17
2019-01-17T23:11:06.296Z,11.20
2019-01-17T23:13:36.414Z,9.77
2019-01-17T23:16:07.451Z,4.83
2019-01-17T23:18:37.704Z,8.80
2019-01-17T23:21:07.915Z,6.27
2019-01-17T23:23:38.485Z,4.97
2019-01-17T23:26:11.623Z,4.97
2019-01-17T23:28:41.734Z,7.00
2019-01-17T23:31:11.768Z,4.00
2019-01-17T23:33:41.973Z,2.80
2019-01-17T23:36:12.154Z,4.53
2019-01-17T23:38:42.084Z,3.47
2019-01-17T23:41:12.428Z,2.97
2019-01-17T23:43:42.772Z,2.43
2019-01-17T23:46:14.005Z,4.20
2019-01-17T23:48:48.835Z,2.60
2019-01-17T23:51:19.371Z,3.23
2019-01-17T23:53:49.684Z,2.00
2019-01-17T23:56:21.855Z,1.50
2019-01-17T23:58:52.912Z,2.53
